Time;durP1;ratioP1;P1;durP2;ratioP2;P2;SDS_P1;SDS_P2;PMS_P1;PMS_P2;Temp;Humidity;BMP_temperature;BMP_pressure;BME280_temperature;BME280_humidity;BME280_pressure;Samples;Min_cycle;Max_cycle;Signal;HPM_P1;HPM_P2
2022/12/05 00:09:38;;;;;;;50.10;21.50;;;;;;;2.62;100.00;101286.78;643691;1313;139722;-78
2022/12/05 00:24:41;;;;;;;39.20;17.80;;;;;;;2.59;100.00;101287.91;640481;1312;138051;-77
2022/12/05 00:39:44;;;;;;;32.60;15.50;;;;;;;2.51;100.00;101299.11;655426;1313;139001;-80
2022/12/05 00:54:47;;;;;;;42.40;18.00;;;;;;;2.59;100.00;101284.28;640363;1313;138683;-78
2022/12/05 01:09:51;;;;;;;54.10;23.30;;;;;;;2.51;100.00;101277.34;639794;1304;139124;-78
2022/12/05 01:24:54;;;;;;;43.30;17.60;;;;;;;2.79;100.00;101264.84;640319;1312;139346;-79
2022/12/05 01:39:57;;;;;;;34.40;15.30;;;;;;;2.51;100.00;101241.43;640575;1306;138955;-77
2022/12/05 01:55:14;;;;;;;39.30;17.10;;;;;;;2.42;100.00;101219.86;640372;1297;138863;-79
2022/12/05 02:10:18;;;;;;;33.70;14.80;;;;;;;2.53;100.00;101223.05;640182;1313;139361;-78
2022/12/05 02:25:21;;;;;;;32.30;14.60;;;;;;;2.48;100.00;101238.80;640930;1303;138577;-78
2022/12/05 02:40:56;;;;;;;40.50;17.90;;;;;;;2.44;100.00;101243.06;640834;1313;138317;-79
2022/12/05 02:56:00;;;;;;;32.90;14.90;;;;;;;2.27;100.00;101223.70;640731;1308;138933;-77
2022/12/05 03:11:05;;;;;;;37.20;18.20;;;;;;;2.35;100.00;101230.98;640029;1313;139076;-78
2022/12/05 03:26:29;;;;;;;32.70;15.20;;;;;;;2.44;100.00;101216.84;639844;1313;138548;-78
2022/12/05 03:41:58;;;;;;;37.70;15.50;;;;;;;2.37;100.00;101222.81;640021;1311;138178;-77
2022/12/05 03:57:08;;;;;;;34.70;16.60;;;;;;;2.34;100.00;101221.39;640350;1306;139374;-80
2022/12/05 04:12:17;;;;;;;31.90;14.10;;;;;;;2.40;100.00;101223.21;640139;1299;138505;-81
2022/12/05 04:27:29;;;;;;;39.90;15.30;;;;;;;2.20;100.00;101214.48;640525;1312;138034;-80
2022/12/05 04:42:36;;;;;;;34.30;15.00;;;;;;;2.09;100.00;101197.10;640378;1307;138864;-79
2022/12/05 04:57:51;;;;;;;35.70;16.10;;;;;;;2.19;100.00;101178.25;640473;1313;138835;-78
2022/12/05 05:12:55;;;;;;;42.90;16.90;;;;;;;2.17;100.00;101182.48;640587;1312;138392;-80
2022/12/05 05:27:58;;;;;;;74.40;33.10;;;;;;;2.06;100.00;101197.07;640292;1313;138787;-77
2022/12/05 05:43:02;;;;;;;41.20;18.00;;;;;;;2.09;100.00;101204.35;640999;1310;138980;-76
2022/12/05 05:58:06;;;;;;;39.00;16.40;;;;;;;2.26;100.00;101203.73;640579;1313;138597;-77
2022/12/05 06:13:09;;;;;;;89.50;35.20;;;;;;;2.31;100.00;101196.79;640037;1313;138504;-81
2022/12/05 06:28:12;;;;;;;68.10;33.90;;;;;;;2.17;100.00;101197.67;640012;1313;138637;-78
2022/12/05 06:43:16;;;;;;;99.00;32.40;;;;;;;2.11;100.00;101198.93;641771;1313;138580;-78
2022/12/05 06:58:19;;;;;;;64.20;27.10;;;;;;;2.07;100.00;101204.95;656899;1313;138478;-76
2022/12/05 07:13:23;;;;;;;135.50;51.50;;;;;;;1.99;100.00;101216.45;640571;1312;138360;-77
2022/12/05 07:28:27;;;;;;;105.80;38.60;;;;;;;1.99;100.00;101217.33;640963;1313;139193;-77
2022/12/05 07:43:30;;;;;;;73.00;43.70;;;;;;;2.13;100.00;101210.23;639699;1312;138870;-81
2022/12/05 07:58:35;;;;;;;50.00;21.60;;;;;;;2.21;100.00;101199.25;640273;1313;138972;-77
2022/12/05 08:13:39;;;;;;;126.20;48.30;;;;;;;2.16;100.00;101197.18;641325;1313;138608;-79
2022/12/05 08:28:43;;;;;;;150.50;56.90;;;;;;;2.19;100.00;101187.06;640806;1313;139224;-81
2022/12/05 08:43:46;;;;;;;73.30;29.80;;;;;;;2.19;100.00;101186.02;639786;1313;138575;-77
2022/12/05 08:58:50;;;;;;;76.90;31.10;;;;;;;2.15;100.00;101179.64;640286;1313;138698;-78
2022/12/05 09:13:56;;;;;;;247.00;68.90;;;;;;;2.20;100.00;101180.65;640915;1310;138623;-77
2022/12/05 09:29:01;;;;;;;432.80;130.90;;;;;;;2.22;100.00;101172.46;640411;1313;138211;-76
2022/12/05 09:44:16;;;;;;;115.60;44.80;;;;;;;2.13;100.00;101168.82;639811;1312;139145;-77
2022/12/05 09:59:20;;;;;;;162.40;58.20;;;;;;;2.16;100.00;101159.41;640296;1312;139347;-80
2022/12/05 10:14:30;;;;;;;80.90;37.10;;;;;;;2.43;100.00;101151.09;640082;1312;138487;-79
2022/12/05 10:29:46;;;;;;;116.00;47.60;;;;;;;2.24;100.00;101129.21;640204;1304;137882;-79
2022/12/05 10:44:56;;;;;;;60.70;24.40;;;;;;;2.23;100.00;101106.99;639708;1305;140411;-77
2022/12/05 11:00:14;;;;;;;84.90;32.40;;;;;;;2.22;100.00;101101.70;640310;1297;138738;-78
2022/12/05 11:15:24;;;;;;;109.10;39.90;;;;;;;2.19;100.00;101097.66;640129;1312;138824;-78
2022/12/05 11:30:28;;;;;;;226.90;64.80;;;;;;;2.20;100.00;101079.00;640477;1302;138788;-82
2022/12/05 11:45:41;;;;;;;160.60;60.60;;;;;;;2.25;100.00;101058.59;640041;1312;138473;-80
2022/12/05 12:01:17;;;;;;;160.20;59.30;;;;;;;2.46;100.00;101038.56;640342;1308;138661;-81
2022/12/05 12:16:44;;;;;;;74.50;30.20;;;;;;;2.43;100.00;101011.93;640352;1312;138407;-79
2022/12/05 12:32:14;;;;;;;108.10;40.80;;;;;;;2.45;100.00;100997.50;639610;1307;138332;-77
2022/12/05 12:47:38;;;;;;;151.60;51.40;;;;;;;2.44;100.00;100985.08;639802;1310;138485;-80
2022/12/05 13:02:53;;;;;;;144.70;66.80;;;;;;;2.39;100.00;100984.46;640178;1311;138077;-83
2022/12/05 13:17:57;;;;;;;116.90;56.70;;;;;;;2.48;100.00;100986.16;640119;1311;138765;-77
2022/12/05 13:33:06;;;;;;;97.30;38.40;;;;;;;2.47;100.00;100986.16;642826;1305;138478;-78
2022/12/05 13:48:32;;;;;;;76.20;29.30;;;;;;;2.38;100.00;100966.39;641549;1312;138410;-78
2022/12/05 14:03:39;;;;;;;150.00;48.10;;;;;;;2.34;100.00;100938.95;645110;1298;138761;-76
2022/12/05 14:18:57;;;;;;;150.10;49.70;;;;;;;2.35;100.00;100906.09;646390;1304;138904;-78
2022/12/05 14:34:26;;;;;;;131.50;49.40;;;;;;;2.32;100.00;100876.00;642574;1297;138380;-77
2022/12/05 14:49:52;;;;;;;128.60;52.50;;;;;;;2.43;100.00;100896.73;642383;1312;139226;-80
2022/12/05 15:05:03;;;;;;;67.80;27.30;;;;;;;2.53;100.00;100898.06;641199;1306;139486;-76
2022/12/05 15:20:32;;;;;;;138.40;54.50;;;;;;;2.48;100.00;100896.16;643348;1298;138480;-77
2022/12/05 15:35:46;;;;;;;109.80;44.30;;;;;;;2.63;100.00;100892.56;651438;1313;139325;-76
2022/12/05 15:50:52;;;;;;;123.30;46.10;;;;;;;2.42;100.00;100884.89;648420;1313;139663;-77
2022/12/05 16:06:03;;;;;;;140.00;47.50;;;;;;;2.39;100.00;100867.23;644401;1312;138893;-77
2022/12/05 16:21:27;;;;;;;207.80;69.80;;;;;;;2.40;100.00;100861.67;641634;1304;138874;-77
2022/12/05 16:36:45;;;;;;;192.60;66.70;;;;;;;2.43;100.00;100861.88;639907;1313;139573;-77
2022/12/05 16:51:57;;;;;;;196.90;59.60;;;;;;;2.51;100.00;100845.98;640237;1305;139345;-77
2022/12/05 17:07:01;;;;;;;165.40;54.30;;;;;;;2.49;100.00;100843.14;640259;1312;139340;-79
2022/12/05 17:22:05;;;;;;;170.00;61.50;;;;;;;2.48;100.00;100831.27;662361;1304;138171;-75
2022/12/05 17:37:08;;;;;;;134.20;52.40;;;;;;;2.56;100.00;100825.36;660653;1312;139333;-75
2022/12/05 17:52:11;;;;;;;138.30;49.10;;;;;;;2.56;100.00;100818.45;660884;1305;139852;-75
2022/12/05 18:07:23;;;;;;;216.50;86.20;;;;;;;2.62;100.00;100801.41;660847;1305;138475;-75
2022/12/05 18:22:27;;;;;;;113.00;44.00;;;;;;;2.63;100.00;100800.01;660503;1312;138166;-77
2022/12/05 18:37:34;;;;;;;140.90;48.40;;;;;;;2.67;100.00;100788.06;660493;1311;141025;-76
2022/12/05 18:52:38;;;;;;;140.40;55.00;;;;;;;2.70;100.00;100773.42;660623;1312;139404;-76
2022/12/05 19:07:41;;;;;;;163.10;58.90;;;;;;;2.83;100.00;100752.45;660270;1312;139009;-77
2022/12/05 19:22:44;;;;;;;124.40;46.60;;;;;;;2.86;100.00;100751.42;660546;1299;138240;-77
2022/12/05 19:37:48;;;;;;;100.20;40.00;;;;;;;2.90;100.00;100752.98;660271;1312;138881;-77
2022/12/05 19:52:51;;;;;;;87.90;40.70;;;;;;;2.95;100.00;100756.89;660587;1313;138515;-77
2022/12/05 20:07:54;;;;;;;78.50;29.80;;;;;;;2.98;100.00;100754.49;660368;1305;138907;-77
2022/12/05 20:22:58;;;;;;;95.90;33.20;;;;;;;2.91;100.00;100742.40;660302;1299;138010;-78
2022/12/05 20:38:02;;;;;;;130.50;55.10;;;;;;;3.02;100.00;100738.38;660516;1307;139672;-78
2022/12/05 20:53:05;;;;;;;83.10;33.30;;;;;;;2.96;100.00;100717.92;660735;1313;138607;-78
2022/12/05 21:08:08;;;;;;;88.70;31.70;;;;;;;3.02;100.00;100713.14;660611;1311;138016;-79
2022/12/05 21:23:12;;;;;;;115.20;36.10;;;;;;;3.02;100.00;100704.52;660666;1312;138249;-78
2022/12/05 21:38:15;;;;;;;100.20;38.90;;;;;;;3.14;100.00;100706.48;660910;1312;139051;-79
2022/12/05 21:53:19;;;;;;;101.60;39.90;;;;;;;3.19;100.00;100698.84;660839;1301;138398;-80
2022/12/05 22:08:22;;;;;;;114.10;42.60;;;;;;;3.12;100.00;100674.27;660701;1313;138275;-80
2022/12/05 22:23:26;;;;;;;91.00;35.40;;;;;;;3.23;100.00;100664.39;661042;1312;138987;-79
2022/12/05 22:38:32;;;;;;;111.00;42.70;;;;;;;3.34;100.00;100644.84;660611;1297;139363;-80
2022/12/05 22:53:37;;;;;;;95.90;37.10;;;;;;;3.42;100.00;100618.13;660846;1305;138675;-79
2022/12/05 23:08:42;;;;;;;97.90;35.80;;;;;;;3.36;100.00;100608.72;660916;1312;138343;-79
2022/12/05 23:23:47;;;;;;;113.80;41.30;;;;;;;3.44;100.00;100592.55;661073;1302;138308;-79
2022/12/05 23:38:50;;;;;;;121.80;49.00;;;;;;;3.43;100.00;100584.54;660899;1311;139032;-79
2022/12/05 23:53:56;;;;;;;109.80;39.60;;;;;;;3.50;100.00;100575.00;660803;1313;138952;-79
